sensor_id;sensor_type;location;lat;lon;timestamp;pressure;altitude;pressure_sealevel;temperature;humidity
20027;BME280;10174;42.688;23.344;2023-02-18T00:00:08;96092.88;;;2.68;61.77
20027;BME280;10174;42.688;23.344;2023-02-18T00:02:34;96012.09;;;2.08;62.55
20027;BME280;10174;42.688;23.344;2023-02-18T00:04:59;96060.88;;;2.42;63.41
20027;BME280;10174;42.688;23.344;2023-02-18T00:07:25;96082.81;;;2.57;62.40
20027;BME280;10174;42.688;23.344;2023-02-18T00:09:50;96083.63;;;2.58;62.27
20027;BME280;10174;42.688;23.344;2023-02-18T00:12:15;96068.38;;;2.66;62.28
20027;BME280;10174;42.688;23.344;2023-02-18T00:14:41;95962.91;;;1.77;63.28
20027;BME280;10174;42.688;23.344;2023-02-18T00:17:06;96071.09;;;2.45;63.26
20027;BME280;10174;42.688;23.344;2023-02-18T00:19:32;96034.22;;;2.22;63.20
20027;BME280;10174;42.688;23.344;2023-02-18T00:21:57;96057.97;;;2.37;64.01
20027;BME280;10174;42.688;23.344;2023-02-18T00:24:23;96039.03;;;2.40;62.96
20027;BME280;10174;42.688;23.344;2023-02-18T00:26:51;96045.88;;;2.62;63.24
20027;BME280;10174;42.688;23.344;2023-02-18T00:29:18;96043.09;;;2.71;62.28
20027;BME280;10174;42.688;23.344;2023-02-18T00:31:44;96019.69;;;2.46;62.80
20027;BME280;10174;42.688;23.344;2023-02-18T00:34:11;96044.56;;;2.45;63.36
20027;BME280;10174;42.688;23.344;2023-02-18T00:36:37;96009.59;;;2.35;63.12
20027;BME280;10174;42.688;23.344;2023-02-18T00:39:05;96025.31;;;2.36;63.61
20027;BME280;10174;42.688;23.344;2023-02-18T00:41:32;96022.38;;;2.24;64.13
20027;BME280;10174;42.688;23.344;2023-02-18T00:43:58;96031.38;;;2.23;65.48
20027;BME280;10174;42.688;23.344;2023-02-18T00:46:24;96008.78;;;2.06;64.35
20027;BME280;10174;42.688;23.344;2023-02-18T00:48:50;96004.38;;;2.13;64.38
20027;BME280;10174;42.688;23.344;2023-02-18T00:51:16;96007.56;;;2.02;64.70
20027;BME280;10174;42.688;23.344;2023-02-18T00:53:41;96014.84;;;2.00;65.32
20027;BME280;10174;42.688;23.344;2023-02-18T00:56:07;95892.34;;;1.19;64.97
20027;BME280;10174;42.688;23.344;2023-02-18T00:58:34;96013.34;;;1.90;65.43
20027;BME280;10174;42.688;23.344;2023-02-18T01:01:02;95987.41;;;1.57;65.87
20027;BME280;10174;42.688;23.344;2023-02-18T01:03:28;96040.75;;;1.76;65.69
20027;BME280;10174;42.688;23.344;2023-02-18T01:05:53;96032.53;;;1.71;66.29
20027;BME280;10174;42.688;23.344;2023-02-18T01:08:20;95961.03;;;1.28;66.41
20027;BME280;10174;42.688;23.344;2023-02-18T01:10:47;96007.50;;;1.73;65.89
20027;BME280;10174;42.688;23.344;2023-02-18T01:13:14;96010.59;;;1.77;65.93
20027;BME280;10174;42.688;23.344;2023-02-18T01:15:41;96025.72;;;1.83;65.86
20027;BME280;10174;42.688;23.344;2023-02-18T01:18:07;95890.44;;;0.92;66.18
20027;BME280;10174;42.688;23.344;2023-02-18T01:20:35;96014.66;;;1.73;65.94
20027;BME280;10174;42.688;23.344;2023-02-18T01:23:01;96030.41;;;1.59;67.17
20027;BME280;10174;42.688;23.344;2023-02-18T01:25:26;95899.63;;;0.74;67.45
20027;BME280;10174;42.688;23.344;2023-02-18T01:27:52;96027.53;;;1.54;67.66
20027;BME280;10174;42.688;23.344;2023-02-18T01:30:17;96004.69;;;1.53;67.79
20027;BME280;10174;42.688;23.344;2023-02-18T01:32:43;96005.06;;;1.72;67.14
20027;BME280;10174;42.688;23.344;2023-02-18T01:35:12;95959.00;;;1.30;67.33
20027;BME280;10174;42.688;23.344;2023-02-18T01:37:38;95966.34;;;1.28;67.39
20027;BME280;10174;42.688;23.344;2023-02-18T01:40:04;95990.22;;;1.34;67.51
20027;BME280;10174;42.688;23.344;2023-02-18T01:42:30;96023.34;;;1.45;67.94
20027;BME280;10174;42.688;23.344;2023-02-18T01:45:39;96016.13;;;1.39;68.79
20027;BME280;10174;42.688;23.344;2023-02-18T01:50:39;96033.94;;;1.45;68.25
20027;BME280;10174;42.688;23.344;2023-02-18T01:53:06;96018.66;;;1.26;68.60
20027;BME280;10174;42.688;23.344;2023-02-18T01:55:33;96041.94;;;1.30;68.57
20027;BME280;10174;42.688;23.344;2023-02-18T01:58:00;96012.34;;;1.27;67.76
20027;BME280;10174;42.688;23.344;2023-02-18T02:00:26;95997.72;;;1.09;69.33
20027;BME280;10174;42.688;23.344;2023-02-18T02:02:52;96033.44;;;1.35;68.97
20027;BME280;10174;42.688;23.344;2023-02-18T02:05:19;96030.50;;;1.30;68.48
20027;BME280;10174;42.688;23.344;2023-02-18T02:07:46;96023.88;;;1.19;69.62
20027;BME280;10174;42.688;23.344;2023-02-18T02:10:13;96026.69;;;1.17;68.92
20027;BME280;10174;42.688;23.344;2023-02-18T02:18:26;95976.75;;;0.93;69.21
20027;BME280;10174;42.688;23.344;2023-02-18T02:24:49;96034.50;;;1.04;70.64
20027;BME280;10174;42.688;23.344;2023-02-18T02:27:20;96031.13;;;1.10;70.47
20027;BME280;10174;42.688;23.344;2023-02-18T02:30:17;96023.06;;;1.18;70.07
20027;BME280;10174;42.688;23.344;2023-02-18T02:35:44;96013.59;;;1.09;70.00
20027;BME280;10174;42.688;23.344;2023-02-18T02:38:44;96012.47;;;1.18;69.31
20027;BME280;10174;42.688;23.344;2023-02-18T02:46:50;95949.69;;;0.76;70.06
20027;BME280;10174;42.688;23.344;2023-02-18T02:52:11;96005.84;;;1.08;70.41
20027;BME280;10174;42.688;23.344;2023-02-18T02:54:37;95889.41;;;0.34;69.79
20027;BME280;10174;42.688;23.344;2023-02-18T02:59:41;96004.00;;;1.08;70.01
20027;BME280;10174;42.688;23.344;2023-02-18T03:02:33;96022.31;;;1.24;70.93
20027;BME280;10174;42.688;23.344;2023-02-18T03:07:46;96024.06;;;1.39;69.97
20027;BME280;10174;42.688;23.344;2023-02-18T03:10:27;95912.72;;;0.82;68.58
20027;BME280;10174;42.688;23.344;2023-02-18T03:13:09;96014.53;;;1.59;68.40
20027;BME280;10174;42.688;23.344;2023-02-18T03:18:22;96015.75;;;1.20;69.56
20027;BME280;10174;42.688;23.344;2023-02-18T03:21:03;96017.88;;;1.10;70.01
20027;BME280;10174;42.688;23.344;2023-02-18T03:23:41;95935.25;;;0.57;70.27
20027;BME280;10174;42.688;23.344;2023-02-18T03:26:10;95945.81;;;0.57;70.42
20027;BME280;10174;42.688;23.344;2023-02-18T03:28:37;95938.44;;;0.52;70.08
20027;BME280;10174;42.688;23.344;2023-02-18T03:31:12;95946.19;;;0.53;69.88
20027;BME280;10174;42.688;23.344;2023-02-18T03:33:54;96065.84;;;1.22;70.73
20027;BME280;10174;42.688;23.344;2023-02-18T03:36:22;96056.09;;;1.22;69.97
20027;BME280;10174;42.688;23.344;2023-02-18T03:38:53;96075.88;;;1.27;69.87
20027;BME280;10174;42.688;23.344;2023-02-18T03:41:21;96054.63;;;1.20;69.92
20027;BME280;10174;42.688;23.344;2023-02-18T03:43:50;96033.72;;;1.25;69.04
20027;BME280;10174;42.688;23.344;2023-02-18T03:46:16;96068.84;;;1.34;69.52
20027;BME280;10174;42.688;23.344;2023-02-18T03:48:42;96041.75;;;1.32;68.62
20027;BME280;10174;42.688;23.344;2023-02-18T03:51:07;95949.69;;;0.76;68.46
20027;BME280;10174;42.688;23.344;2023-02-18T03:53:32;96052.66;;;1.43;67.68
20027;BME280;10174;42.688;23.344;2023-02-18T03:55:58;96073.03;;;1.43;67.82
20027;BME280;10174;42.688;23.344;2023-02-18T03:58:23;96055.47;;;1.42;68.16
20027;BME280;10174;42.688;23.344;2023-02-18T04:00:48;96070.50;;;1.35;69.33
20027;BME280;10174;42.688;23.344;2023-02-18T04:03:14;96023.88;;;1.19;68.00
20027;BME280;10174;42.688;23.344;2023-02-18T04:05:39;96063.56;;;1.34;68.13
20027;BME280;10174;42.688;23.344;2023-02-18T04:08:05;96020.63;;;1.02;68.57
20027;BME280;10174;42.688;23.344;2023-02-18T04:10:30;96025.56;;;0.90;69.58
20027;BME280;10174;42.688;23.344;2023-02-18T04:12:55;96054.47;;;0.92;70.23
20027;BME280;10174;42.688;23.344;2023-02-18T04:15:21;96056.13;;;0.93;69.96
20027;BME280;10174;42.688;23.344;2023-02-18T04:17:46;96054.28;;;1.08;70.11
20027;BME280;10174;42.688;23.344;2023-02-18T04:20:12;96042.88;;;1.08;69.75
20027;BME280;10174;42.688;23.344;2023-02-18T04:22:37;96029.41;;;0.87;70.52
20027;BME280;10174;42.688;23.344;2023-02-18T04:25:03;95926.06;;;0.08;70.77
20027;BME280;10174;42.688;23.344;2023-02-18T04:27:29;96027.06;;;0.48;71.75
20027;BME280;10174;42.688;23.344;2023-02-18T04:29:54;96011.03;;;0.49;71.54
20027;BME280;10174;42.688;23.344;2023-02-18T04:32:19;96048.50;;;0.68;71.66
20027;BME280;10174;42.688;23.344;2023-02-18T04:34:45;96026.59;;;0.59;71.71
20027;BME280;10174;42.688;23.344;2023-02-18T04:37:10;96038.34;;;0.71;71.53
20027;BME280;10174;42.688;23.344;2023-02-18T04:39:35;96023.25;;;0.50;71.59
20027;BME280;10174;42.688;23.344;2023-02-18T04:42:01;95919.75;;;-0.06;71.81
20027;BME280;10174;42.688;23.344;2023-02-18T04:44:26;96024.06;;;0.66;71.72
20027;BME280;10174;42.688;23.344;2023-02-18T04:46:52;96024.13;;;0.73;72.03
20027;BME280;10174;42.688;23.344;2023-02-18T04:49:17;95999.22;;;0.67;71.35
20027;BME280;10174;42.688;23.344;2023-02-18T04:51:42;96053.03;;;1.04;70.72
20027;BME280;10174;42.688;23.344;2023-02-18T04:54:08;96053.78;;;0.98;70.79
20027;BME280;10174;42.688;23.344;2023-02-18T04:56:33;96020.56;;;0.65;70.40
20027;BME280;10174;42.688;23.344;2023-02-18T04:58:59;96035.09;;;0.69;71.14
20027;BME280;10174;42.688;23.344;2023-02-18T05:01:24;96025.78;;;0.74;71.19
20027;BME280;10174;42.688;23.344;2023-02-18T05:03:49;95973.72;;;0.44;71.08
20027;BME280;10174;42.688;23.344;2023-02-18T05:06:15;95973.34;;;0.47;70.69
20027;BME280;10174;42.688;23.344;2023-02-18T05:08:40;95933.25;;;0.29;70.79
20027;BME280;10174;42.688;23.344;2023-02-18T05:11:07;96020.19;;;0.83;70.68
20027;BME280;10174;42.688;23.344;2023-02-18T05:13:33;96015.63;;;1.07;69.45
20027;BME280;10174;42.688;23.344;2023-02-18T05:15:58;96036.66;;;1.15;70.06
20027;BME280;10174;42.688;23.344;2023-02-18T05:18:24;96040.53;;;0.98;70.73
20027;BME280;10174;42.688;23.344;2023-02-18T05:20:49;96022.41;;;0.65;72.02
20027;BME280;10174;42.688;23.344;2023-02-18T05:23:14;96033.47;;;1.05;70.52
20027;BME280;10174;42.688;23.344;2023-02-18T05:25:40;96041.06;;;1.08;70.85
20027;BME280;10174;42.688;23.344;2023-02-18T05:28:05;96022.97;;;0.75;71.41
20027;BME280;10174;42.688;23.344;2023-02-18T05:30:31;96049.84;;;0.79;71.99
20027;BME280;10174;42.688;23.344;2023-02-18T05:32:56;96018.03;;;0.72;72.27
20027;BME280;10174;42.688;23.344;2023-02-18T05:35:21;96037.63;;;0.93;71.79
20027;BME280;10174;42.688;23.344;2023-02-18T05:37:47;95997.69;;;0.73;72.13
20027;BME280;10174;42.688;23.344;2023-02-18T05:40:12;96034.16;;;0.92;72.31
20027;BME280;10174;42.688;23.344;2023-02-18T05:42:38;96030.59;;;1.00;72.59
20027;BME280;10174;42.688;23.344;2023-02-18T05:45:03;96034.22;;;1.14;71.81
20027;BME280;10174;42.688;23.344;2023-02-18T05:47:29;96017.38;;;1.21;71.18
20027;BME280;10174;42.688;23.344;2023-02-18T05:49:54;96055.63;;;1.55;70.93
20027;BME280;10174;42.688;23.344;2023-02-18T05:52:20;96054.88;;;1.62;70.51
20027;BME280;10174;42.688;23.344;2023-02-18T05:54:46;96027.63;;;1.46;70.22
20027;BME280;10174;42.688;23.344;2023-02-18T05:57:14;96053.34;;;1.74;70.17
20027;BME280;10174;42.688;23.344;2023-02-18T05:59:40;96053.06;;;1.84;69.95
20027;BME280;10174;42.688;23.344;2023-02-18T06:02:06;96072.75;;;2.24;68.37
20027;BME280;10174;42.688;23.344;2023-02-18T06:04:31;96075.78;;;2.21;68.48
20027;BME280;10174;42.688;23.344;2023-02-18T06:06:57;96033.78;;;1.96;68.75
20027;BME280;10174;42.688;23.344;2023-02-18T06:09:22;96044.31;;;2.11;68.28
20027;BME280;10174;42.688;23.344;2023-02-18T06:11:48;96059.00;;;2.36;67.43
20027;BME280;10174;42.688;23.344;2023-02-18T06:14:14;96065.28;;;2.35;67.91
20027;BME280;10174;42.688;23.344;2023-02-18T06:16:39;96068.22;;;2.40;68.37
20027;BME280;10174;42.688;23.344;2023-02-18T06:19:04;96038.38;;;2.38;67.36
20027;BME280;10174;42.688;23.344;2023-02-18T06:21:30;96051.09;;;2.84;67.03
20027;BME280;10174;42.688;23.344;2023-02-18T06:23:56;96045.94;;;2.69;67.16
20027;BME280;10174;42.688;23.344;2023-02-18T06:26:21;95944.31;;;1.99;67.24
20027;BME280;10174;42.688;23.344;2023-02-18T06:28:46;95940.03;;;2.33;65.99
20027;BME280;10174;42.688;23.344;2023-02-18T06:31:12;96054.50;;;3.13;65.64
20027;BME280;10174;42.688;23.344;2023-02-18T06:33:37;96047.34;;;3.07;65.95
20027;BME280;10174;42.688;23.344;2023-02-18T06:36:05;96037.97;;;3.04;66.05
20027;BME280;10174;42.688;23.344;2023-02-18T06:38:32;96049.38;;;3.05;66.07
20027;BME280;10174;42.688;23.344;2023-02-18T06:40:58;96058.03;;;3.27;65.00
20027;BME280;10174;42.688;23.344;2023-02-18T06:43:24;96013.06;;;3.12;64.62
20027;BME280;10174;42.688;23.344;2023-02-18T06:45:50;96049.53;;;3.45;64.00
20027;BME280;10174;42.688;23.344;2023-02-18T06:48:15;96053.03;;;3.52;63.71
20027;BME280;10174;42.688;23.344;2023-02-18T06:50:41;96026.66;;;3.57;64.20
20027;BME280;10174;42.688;23.344;2023-02-18T06:53:06;96028.97;;;3.93;62.91
20027;BME280;10174;42.688;23.344;2023-02-18T06:55:32;95982.53;;;3.83;62.02
20027;BME280;10174;42.688;23.344;2023-02-18T06:57:57;96052.50;;;4.17;62.52
20027;BME280;10174;42.688;23.344;2023-02-18T07:00:23;96043.09;;;4.34;61.44
20027;BME280;10174;42.688;23.344;2023-02-18T07:02:49;96047.97;;;4.64;61.12
20027;BME280;10174;42.688;23.344;2023-02-18T07:05:14;96003.38;;;4.26;61.08
20027;BME280;10174;42.688;23.344;2023-02-18T07:07:40;96037.72;;;4.74;60.92
20027;BME280;10174;42.688;23.344;2023-02-18T07:10:06;95940.94;;;4.42;60.08
20027;BME280;10174;42.688;23.344;2023-02-18T07:12:32;96043.75;;;5.15;58.80
20027;BME280;10174;42.688;23.344;2023-02-18T07:14:57;96005.06;;;4.99;58.54
20027;BME280;10174;42.688;23.344;2023-02-18T07:17:23;95988.94;;;4.80;58.63
20027;BME280;10174;42.688;23.344;2023-02-18T07:19:48;95977.44;;;4.87;58.83
20027;BME280;10174;42.688;23.344;2023-02-18T07:22:14;95978.53;;;5.17;56.99
20027;BME280;10174;42.688;23.344;2023-02-18T07:24:39;95916.38;;;4.98;57.52
20027;BME280;10174;42.688;23.344;2023-02-18T07:27:04;95976.78;;;5.43;57.56
20027;BME280;10174;42.688;23.344;2023-02-18T07:29:30;96013.03;;;5.83;56.11
20027;BME280;10174;42.688;23.344;2023-02-18T07:31:55;95973.94;;;5.38;56.03
20027;BME280;10174;42.688;23.344;2023-02-18T07:34:21;96020.13;;;5.64;56.79
20027;BME280;10174;42.688;23.344;2023-02-18T07:36:46;95920.13;;;4.84;56.33
20027;BME280;10174;42.688;23.344;2023-02-18T07:39:12;96054.97;;;5.69;57.16
20027;BME280;10174;42.688;23.344;2023-02-18T07:41:37;95945.38;;;5.13;56.91
20027;BME280;10174;42.688;23.344;2023-02-18T07:44:03;95949.78;;;5.33;55.53
20027;BME280;10174;42.688;23.344;2023-02-18T07:46:28;96048.53;;;6.15;55.77
20027;BME280;10174;42.688;23.344;2023-02-18T07:48:55;95942.44;;;5.28;54.37
20027;BME280;10174;42.688;23.344;2023-02-18T07:51:21;96046.03;;;6.20;54.90
20027;BME280;10174;42.688;23.344;2023-02-18T07:53:46;96053.41;;;6.69;53.18
20027;BME280;10174;42.688;23.344;2023-02-18T07:56:12;95980.25;;;6.33;52.86
20027;BME280;10174;42.688;23.344;2023-02-18T07:58:38;96046.09;;;7.01;51.65
20027;BME280;10174;42.688;23.344;2023-02-18T08:01:09;96032.09;;;7.06;51.25
20027;BME280;10174;42.688;23.344;2023-02-18T08:03:35;96035.47;;;6.94;51.46
20027;BME280;10174;42.688;23.344;2023-02-18T08:06:01;96003.78;;;7.17;49.54
20027;BME280;10174;42.688;23.344;2023-02-18T08:08:29;96027.44;;;7.50;49.60
20027;BME280;10174;42.688;23.344;2023-02-18T08:10:56;96016.13;;;7.66;48.84
20027;BME280;10174;42.688;23.344;2023-02-18T08:13:22;96026.47;;;8.17;47.97
20027;BME280;10174;42.688;23.344;2023-02-18T08:15:48;95990.84;;;7.62;48.50
20027;BME280;10174;42.688;23.344;2023-02-18T08:18:16;96001.53;;;8.05;48.61
20027;BME280;10174;42.688;23.344;2023-02-18T08:20:42;95928.81;;;7.96;47.04
20027;BME280;10174;42.688;23.344;2023-02-18T08:23:09;96026.28;;;8.78;46.68
20027;BME280;10174;42.688;23.344;2023-02-18T08:25:35;96011.47;;;8.28;47.56
20027;BME280;10174;42.688;23.344;2023-02-18T08:28:00;96010.06;;;8.25;47.23
20027;BME280;10174;42.688;23.344;2023-02-18T08:30:26;96023.06;;;7.98;48.28
20027;BME280;10174;42.688;23.344;2023-02-18T08:32:51;96021.41;;;7.97;48.46
20027;BME280;10174;42.688;23.344;2023-02-18T08:35:17;95913.78;;;7.29;48.79
20027;BME280;10174;42.688;23.344;2023-02-18T08:37:42;95995.56;;;7.91;48.51
20027;BME280;10174;42.688;23.344;2023-02-18T08:40:09;96027.25;;;8.48;48.00
20027;BME280;10174;42.688;23.344;2023-02-18T08:42:34;96002.97;;;8.90;46.12
20027;BME280;10174;42.688;23.344;2023-02-18T08:45:00;95962.13;;;8.71;45.49
20027;BME280;10174;42.688;23.344;2023-02-18T08:47:25;95987.25;;;8.23;47.19
20027;BME280;10174;42.688;23.344;2023-02-18T08:49:54;96013.31;;;8.27;47.56
20027;BME280;10174;42.688;23.344;2023-02-18T08:52:19;96023.72;;;8.35;47.48
20027;BME280;10174;42.688;23.344;2023-02-18T08:54:45;96029.75;;;8.31;47.88
20027;BME280;10174;42.688;23.344;2023-02-18T08:57:10;95966.78;;;8.28;47.19
20027;BME280;10174;42.688;23.344;2023-02-18T08:59:36;95996.72;;;8.49;47.11
20027;BME280;10174;42.688;23.344;2023-02-18T09:02:01;96015.09;;;8.93;46.79
20027;BME280;10174;42.688;23.344;2023-02-18T09:04:27;95987.50;;;8.80;46.52
20027;BME280;10174;42.688;23.344;2023-02-18T09:06:53;95996.31;;;9.45;45.84
20027;BME280;10174;42.688;23.344;2023-02-18T09:09:18;95996.47;;;9.67;45.45
20027;BME280;10174;42.688;23.344;2023-02-18T09:11:44;96021.09;;;10.10;44.25
20027;BME280;10174;42.688;23.344;2023-02-18T09:14:10;96020.28;;;10.09;45.11
20027;BME280;10174;42.688;23.344;2023-02-18T09:16:35;95995.53;;;10.07;44.08
20027;BME280;10174;42.688;23.344;2023-02-18T09:19:02;96015.09;;;10.71;43.05
20027;BME280;10174;42.688;23.344;2023-02-18T09:21:28;96013.31;;;10.42;44.26
20027;BME280;10174;42.688;23.344;2023-02-18T09:23:53;95961.19;;;9.92;43.92
20027;BME280;10174;42.688;23.344;2023-02-18T09:26:20;96008.41;;;10.22;44.23
20027;BME280;10174;42.688;23.344;2023-02-18T09:28:48;96009.22;;;10.23;43.35
20027;BME280;10174;42.688;23.344;2023-02-18T09:31:18;95972.59;;;10.16;43.61
20027;BME280;10174;42.688;23.344;2023-02-18T09:33:47;95987.34;;;10.65;42.99
20027;BME280;10174;42.688;23.344;2023-02-18T09:36:15;95973.41;;;10.68;43.59
20027;BME280;10174;42.688;23.344;2023-02-18T09:38:41;95971.38;;;10.97;42.35
20027;BME280;10174;42.688;23.344;2023-02-18T09:41:13;95991.25;;;11.63;41.17
20027;BME280;10174;42.688;23.344;2023-02-18T09:43:42;95947.28;;;11.30;41.06
20027;BME280;10174;42.688;23.344;2023-02-18T09:46:19;95986.50;;;11.48;40.50
20027;BME280;10174;42.688;23.344;2023-02-18T09:48:47;95977.28;;;11.66;40.32
20027;BME280;10174;42.688;23.344;2023-02-18T09:51:14;95981.78;;;12.47;38.79
20027;BME280;10174;42.688;23.344;2023-02-18T09:53:42;95991.69;;;12.74;37.93
20027;BME280;10174;42.688;23.344;2023-02-18T09:56:21;95738.88;;;11.75;37.07
20027;BME280;10174;42.688;23.344;2023-02-18T09:58:48;95965.69;;;14.04;35.61
20027;BME280;10174;42.688;23.344;2023-02-18T10:01:31;95951.25;;;13.37;36.01
20027;BME280;10174;42.688;23.344;2023-02-18T10:04:04;95969.13;;;13.59;35.24
20027;BME280;10174;42.688;23.344;2023-02-18T10:06:33;95959.50;;;14.19;35.32
20027;BME280;10174;42.688;23.344;2023-02-18T10:09:02;95953.44;;;15.05;34.17
20027;BME280;10174;42.688;23.344;2023-02-18T10:13:55;95959.59;;;18.14;29.40
20027;BME280;10174;42.688;23.344;2023-02-18T10:16:22;95883.94;;;18.35;28.25
20027;BME280;10174;42.688;23.344;2023-02-18T10:18:50;95939.06;;;20.07;26.31
20027;BME280;10174;42.688;23.344;2023-02-18T10:21:20;95962.13;;;21.32;24.99
20027;BME280;10174;42.688;23.344;2023-02-18T10:26:46;95839.34;;;21.44;23.55
20027;BME280;10174;42.688;23.344;2023-02-18T10:29:17;95929.16;;;23.72;22.69
20027;BME280;10174;42.688;23.344;2023-02-18T10:31:49;95921.25;;;23.40;21.53
20027;BME280;10174;42.688;23.344;2023-02-18T10:34:30;95939.94;;;20.39;24.72
20027;BME280;10174;42.688;23.344;2023-02-18T10:40:26;95892.34;;;22.74;21.93
20027;BME280;10174;42.688;23.344;2023-02-18T10:48:21;95914.44;;;23.76;21.71
20027;BME280;10174;42.688;23.344;2023-02-18T10:50:52;95854.88;;;23.77;22.19
20027;BME280;10174;42.688;23.344;2023-02-18T10:55:53;95878.63;;;22.36;23.34
20027;BME280;10174;42.688;23.344;2023-02-18T10:58:33;95895.56;;;24.71;20.85
20027;BME280;10174;42.688;23.344;2023-02-18T11:01:13;95877.97;;;23.76;21.14
20027;BME280;10174;42.688;23.344;2023-02-18T11:03:43;95881.59;;;22.69;21.71
20027;BME280;10174;42.688;23.344;2023-02-18T11:09:28;95888.88;;;19.08;25.13
20027;BME280;10174;42.688;23.344;2023-02-18T11:12:05;95860.31;;;19.19;25.13
20027;BME280;10174;42.688;23.344;2023-02-18T11:14:44;95785.97;;;19.32;23.91
20027;BME280;10174;42.688;23.344;2023-02-18T11:17:27;95860.53;;;20.72;22.68
20027;BME280;10174;42.688;23.344;2023-02-18T11:19:59;95868.13;;;18.23;25.22
20027;BME280;10174;42.688;23.344;2023-02-18T11:22:31;95831.22;;;16.65;26.79
20027;BME280;10174;42.688;23.344;2023-02-18T11:25:21;95858.75;;;15.94;27.76
20027;BME280;10174;42.688;23.344;2023-02-18T11:30:47;95846.72;;;16.83;27.29
20027;BME280;10174;42.688;23.344;2023-02-18T11:33:19;95853.31;;;16.77;27.07
20027;BME280;10174;42.688;23.344;2023-02-18T11:35:54;95851.69;;;17.00;27.27
20027;BME280;10174;42.688;23.344;2023-02-18T11:38:41;95796.72;;;15.93;28.00
20027;BME280;10174;42.688;23.344;2023-02-18T11:41:10;95826.28;;;16.67;27.81
20027;BME280;10174;42.688;23.344;2023-02-18T11:43:40;95783.78;;;17.24;26.79
20027;BME280;10174;42.688;23.344;2023-02-18T11:48:40;95808.59;;;18.22;26.08
20027;BME280;10174;42.688;23.344;2023-02-18T11:51:22;95779.19;;;18.38;25.77
20027;BME280;10174;42.688;23.344;2023-02-18T11:53:59;95714.31;;;18.03;25.49
20027;BME280;10174;42.688;23.344;2023-02-18T11:56:28;95806.34;;;19.35;24.87
20027;BME280;10174;42.688;23.344;2023-02-18T11:58:55;95788.78;;;19.64;24.22
20027;BME280;10174;42.688;23.344;2023-02-18T12:04:02;95789.56;;;20.09;23.98
20027;BME280;10174;42.688;23.344;2023-02-18T12:06:34;95667.78;;;19.96;23.68
20027;BME280;10174;42.688;23.344;2023-02-18T12:09:05;95773.91;;;20.64;23.47
20027;BME280;10174;42.688;23.344;2023-02-18T12:11:35;95776.38;;;20.34;24.21
20027;BME280;10174;42.688;23.344;2023-02-18T12:14:02;95770.53;;;18.77;26.20
20027;BME280;10174;42.688;23.344;2023-02-18T12:41:18;95739.66;;;17.98;28.51
20027;BME280;10174;42.688;23.344;2023-02-18T13:02:51;95727.16;;;18.81;26.68
20027;BME280;10174;42.688;23.344;2023-02-18T13:14:11;95725.38;;;17.08;28.69
20027;BME280;10174;42.688;23.344;2023-02-18T13:16:40;95635.31;;;16.30;28.91
20027;BME280;10174;42.688;23.344;2023-02-18T13:21:43;95716.53;;;16.59;29.08
20027;BME280;10174;42.688;23.344;2023-02-18T13:24:14;95687.22;;;16.42;29.48
20027;BME280;10174;42.688;23.344;2023-02-18T13:26:43;95721.38;;;16.62;30.38
20027;BME280;10174;42.688;23.344;2023-02-18T13:31:51;95721.94;;;16.40;31.41
20027;BME280;10174;42.688;23.344;2023-02-18T13:34:30;95712.88;;;16.50;31.49
20027;BME280;10174;42.688;23.344;2023-02-18T13:37:15;95627.38;;;15.66;32.06
20027;BME280;10174;42.688;23.344;2023-02-18T13:39:55;95639.50;;;15.44;32.80
20027;BME280;10174;42.688;23.344;2023-02-18T13:42:25;95720.59;;;15.89;32.75
20027;BME280;10174;42.688;23.344;2023-02-18T13:47:43;95642.53;;;15.08;33.23
20027;BME280;10174;42.688;23.344;2023-02-18T13:50:30;95617.19;;;14.99;33.31
20027;BME280;10174;42.688;23.344;2023-02-18T13:55:54;95701.91;;;15.29;33.44
20027;BME280;10174;42.688;23.344;2023-02-18T13:58:26;95715.47;;;15.24;33.69
20027;BME280;10174;42.688;23.344;2023-02-18T14:00:59;95707.97;;;15.16;33.81
20027;BME280;10174;42.688;23.344;2023-02-18T14:03:49;95726.47;;;15.03;33.81
20027;BME280;10174;42.688;23.344;2023-02-18T14:06:19;95691.34;;;14.93;33.81
20027;BME280;10174;42.688;23.344;2023-02-18T14:08:45;95716.25;;;14.90;34.07
20027;BME280;10174;42.688;23.344;2023-02-18T14:16:24;95717.88;;;14.91;34.09
20027;BME280;10174;42.688;23.344;2023-02-18T14:19:00;95708.47;;;14.78;34.02
20027;BME280;10174;42.688;23.344;2023-02-18T14:21:38;95724.78;;;14.68;34.54
20027;BME280;10174;42.688;23.344;2023-02-18T14:24:06;95701.31;;;14.53;34.82
20027;BME280;10174;42.688;23.344;2023-02-18T14:26:42;95729.13;;;14.58;34.78
20027;BME280;10174;42.688;23.344;2023-02-18T14:29:25;95700.34;;;14.23;34.94
20027;BME280;10174;42.688;23.344;2023-02-18T14:32:01;95726.16;;;14.55;35.11
20027;BME280;10174;42.688;23.344;2023-02-18T14:42:46;95736.88;;;14.81;34.73
20027;BME280;10174;42.688;23.344;2023-02-18T14:46:02;95732.81;;;14.83;34.66
20027;BME280;10174;42.688;23.344;2023-02-18T14:48:44;95729.38;;;14.67;35.20
20027;BME280;10174;42.688;23.344;2023-02-18T14:51:18;95707.78;;;14.52;34.92
20027;BME280;10174;42.688;23.344;2023-02-18T14:53:46;95709.38;;;14.58;34.95
20027;BME280;10174;42.688;23.344;2023-02-18T14:56:15;95692.13;;;14.54;34.90
20027;BME280;10174;42.688;23.344;2023-02-18T14:58:47;95669.97;;;14.47;35.01
20027;BME280;10174;42.688;23.344;2023-02-18T15:01:31;95718.00;;;14.70;35.19
20027;BME280;10174;42.688;23.344;2023-02-18T15:03:57;95706.19;;;14.51;35.38
20027;BME280;10174;42.688;23.344;2023-02-18T15:09:20;95708.97;;;14.30;35.89
20027;BME280;10174;42.688;23.344;2023-02-18T15:11:54;95716.81;;;14.32;36.07
20027;BME280;10174;42.688;23.344;2023-02-18T15:14:24;95700.38;;;14.18;35.89
20027;BME280;10174;42.688;23.344;2023-02-18T15:16:50;95697.22;;;13.95;36.13
20027;BME280;10174;42.688;23.344;2023-02-18T15:19:23;95728.22;;;14.13;36.50
20027;BME280;10174;42.688;23.344;2023-02-18T15:21:50;95720.16;;;14.03;36.44
20027;BME280;10174;42.688;23.344;2023-02-18T15:26:48;95712.63;;;13.84;37.04